sensor_id;sensor_type;location;lat;lon;timestamp;temperature;humidity
7648;DHT22;3866;48.020;11.720;2023-09-30T00:01:50;17.30;99.90
7648;DHT22;3866;48.020;11.720;2023-09-30T00:04:17;17.30;99.90
7648;DHT22;3866;48.020;11.720;2023-09-30T00:06:46;17.20;99.90
7648;DHT22;3866;48.020;11.720;2023-09-30T00:09:14;17.20;99.90
7648;DHT22;3866;48.020;11.720;2023-09-30T00:11:42;17.20;99.90
7648;DHT22;3866;48.020;11.720;2023-09-30T00:14:10;17.20;99.90
7648;DHT22;3866;48.020;11.720;2023-09-30T00:16:38;17.20;99.90
7648;DHT22;3866;48.020;11.720;2023-09-30T00:19:06;17.10;99.90
7648;DHT22;3866;48.020;11.720;2023-09-30T00:21:33;17.10;99.90
7648;DHT22;3866;48.020;11.720;2023-09-30T00:24:01;17.10;99.90
7648;DHT22;3866;48.020;11.720;2023-09-30T00:26:28;17.10;99.90
7648;DHT22;3866;48.020;11.720;2023-09-30T00:28:55;17.10;99.90
7648;DHT22;3866;48.020;11.720;2023-09-30T00:31:22;17.00;99.90
7648;DHT22;3866;48.020;11.720;2023-09-30T00:33:51;17.10;99.90
7648;DHT22;3866;48.020;11.720;2023-09-30T00:36:21;17.10;99.90
7648;DHT22;3866;48.020;11.720;2023-09-30T00:38:49;17.10;99.90
7648;DHT22;3866;48.020;11.720;2023-09-30T00:41:18;17.10;99.90
7648;DHT22;3866;48.020;11.720;2023-09-30T00:43:47;17.00;99.90
7648;DHT22;3866;48.020;11.720;2023-09-30T00:46:21;17.10;99.90
7648;DHT22;3866;48.020;11.720;2023-09-30T00:48:52;17.00;99.90
7648;DHT22;3866;48.020;11.720;2023-09-30T00:51:21;17.10;99.90
7648;DHT22;3866;48.020;11.720;2023-09-30T00:53:51;17.00;99.90
7648;DHT22;3866;48.020;11.720;2023-09-30T00:56:18;17.00;99.90
7648;DHT22;3866;48.020;11.720;2023-09-30T00:58:48;17.00;99.90
7648;DHT22;3866;48.020;11.720;2023-09-30T01:01:18;17.00;99.90
7648;DHT22;3866;48.020;11.720;2023-09-30T01:03:47;17.00;99.90
7648;DHT22;3866;48.020;11.720;2023-09-30T01:06:17;17.10;99.90
7648;DHT22;3866;48.020;11.720;2023-09-30T01:08:45;17.00;99.90
7648;DHT22;3866;48.020;11.720;2023-09-30T01:11:13;17.00;99.90
7648;DHT22;3866;48.020;11.720;2023-09-30T01:13:42;17.00;99.90
7648;DHT22;3866;48.020;11.720;2023-09-30T01:16:11;17.00;99.90
7648;DHT22;3866;48.020;11.720;2023-09-30T01:18:41;17.00;99.90
7648;DHT22;3866;48.020;11.720;2023-09-30T01:21:09;17.00;99.90
7648;DHT22;3866;48.020;11.720;2023-09-30T01:23:37;17.00;99.90
7648;DHT22;3866;48.020;11.720;2023-09-30T01:26:07;17.00;99.90
7648;DHT22;3866;48.020;11.720;2023-09-30T01:28:35;17.00;99.90
7648;DHT22;3866;48.020;11.720;2023-09-30T01:31:04;17.00;99.90
7648;DHT22;3866;48.020;11.720;2023-09-30T01:33:35;17.00;99.90
7648;DHT22;3866;48.020;11.720;2023-09-30T01:36:02;17.00;99.90
7648;DHT22;3866;48.020;11.720;2023-09-30T01:38:29;17.00;99.90
7648;DHT22;3866;48.020;11.720;2023-09-30T01:40:58;17.00;99.90
7648;DHT22;3866;48.020;11.720;2023-09-30T01:43:27;17.10;99.90
7648;DHT22;3866;48.020;11.720;2023-09-30T01:45:55;17.10;99.90
7648;DHT22;3866;48.020;11.720;2023-09-30T01:48:24;17.10;99.90
7648;DHT22;3866;48.020;11.720;2023-09-30T01:50:52;17.00;99.90
7648;DHT22;3866;48.020;11.720;2023-09-30T01:53:21;17.00;99.90
7648;DHT22;3866;48.020;11.720;2023-09-30T01:55:49;17.00;99.90
7648;DHT22;3866;48.020;11.720;2023-09-30T01:58:19;16.90;99.90
7648;DHT22;3866;48.020;11.720;2023-09-30T02:00:47;16.90;99.90
7648;DHT22;3866;48.020;11.720;2023-09-30T02:03:14;17.00;99.90
7648;DHT22;3866;48.020;11.720;2023-09-30T02:05:44;17.00;99.90
7648;DHT22;3866;48.020;11.720;2023-09-30T02:08:12;17.00;99.90
7648;DHT22;3866;48.020;11.720;2023-09-30T02:10:39;16.90;99.90
7648;DHT22;3866;48.020;11.720;2023-09-30T02:13:07;16.90;99.90
7648;DHT22;3866;48.020;11.720;2023-09-30T02:15:39;17.00;99.90
7648;DHT22;3866;48.020;11.720;2023-09-30T02:18:07;16.90;99.90
7648;DHT22;3866;48.020;11.720;2023-09-30T02:20:36;16.90;99.90
7648;DHT22;3866;48.020;11.720;2023-09-30T02:23:06;16.90;99.90
7648;DHT22;3866;48.020;11.720;2023-09-30T02:25:34;17.00;99.90
7648;DHT22;3866;48.020;11.720;2023-09-30T02:28:03;16.90;99.90
7648;DHT22;3866;48.020;11.720;2023-09-30T02:30:31;16.90;99.90
7648;DHT22;3866;48.020;11.720;2023-09-30T02:32:59;16.90;99.90
7648;DHT22;3866;48.020;11.720;2023-09-30T02:35:27;16.90;99.90
7648;DHT22;3866;48.020;11.720;2023-09-30T02:37:54;16.80;99.90
7648;DHT22;3866;48.020;11.720;2023-09-30T02:40:22;16.80;99.90
7648;DHT22;3866;48.020;11.720;2023-09-30T02:42:52;16.80;99.90
7648;DHT22;3866;48.020;11.720;2023-09-30T02:45:21;16.80;99.90
7648;DHT22;3866;48.020;11.720;2023-09-30T02:47:49;16.80;99.90
7648;DHT22;3866;48.020;11.720;2023-09-30T02:50:19;16.70;99.90
7648;DHT22;3866;48.020;11.720;2023-09-30T02:52:47;16.60;99.90
7648;DHT22;3866;48.020;11.720;2023-09-30T02:55:16;16.60;99.90
7648;DHT22;3866;48.020;11.720;2023-09-30T02:57:44;16.70;99.90
7648;DHT22;3866;48.020;11.720;2023-09-30T03:00:15;16.60;99.90
7648;DHT22;3866;48.020;11.720;2023-09-30T03:02:51;16.50;99.90
7648;DHT22;3866;48.020;11.720;2023-09-30T03:05:20;16.60;99.90
7648;DHT22;3866;48.020;11.720;2023-09-30T03:07:49;16.60;99.90
7648;DHT22;3866;48.020;11.720;2023-09-30T03:10:18;16.50;99.90
7648;DHT22;3866;48.020;11.720;2023-09-30T03:12:47;16.60;99.90
7648;DHT22;3866;48.020;11.720;2023-09-30T03:15:14;16.50;99.90
7648;DHT22;3866;48.020;11.720;2023-09-30T03:17:43;16.50;99.90
7648;DHT22;3866;48.020;11.720;2023-09-30T03:20:11;16.50;99.90
7648;DHT22;3866;48.020;11.720;2023-09-30T03:22:43;16.50;99.90
7648;DHT22;3866;48.020;11.720;2023-09-30T03:25:15;16.50;99.90
7648;DHT22;3866;48.020;11.720;2023-09-30T03:27:43;16.40;99.90
7648;DHT22;3866;48.020;11.720;2023-09-30T03:30:13;16.40;99.90
7648;DHT22;3866;48.020;11.720;2023-09-30T03:32:42;16.40;99.90
7648;DHT22;3866;48.020;11.720;2023-09-30T03:35:11;16.40;99.90
7648;DHT22;3866;48.020;11.720;2023-09-30T03:37:44;16.40;99.90
7648;DHT22;3866;48.020;11.720;2023-09-30T03:40:14;16.40;99.90
7648;DHT22;3866;48.020;11.720;2023-09-30T03:42:46;16.40;99.90
7648;DHT22;3866;48.020;11.720;2023-09-30T03:45:16;16.40;99.90
7648;DHT22;3866;48.020;11.720;2023-09-30T03:47:45;16.30;99.90
7648;DHT22;3866;48.020;11.720;2023-09-30T03:50:15;16.30;99.90
7648;DHT22;3866;48.020;11.720;2023-09-30T03:52:47;16.30;99.90
7648;DHT22;3866;48.020;11.720;2023-09-30T03:55:16;16.30;99.90
7648;DHT22;3866;48.020;11.720;2023-09-30T03:57:47;16.20;99.90
7648;DHT22;3866;48.020;11.720;2023-09-30T04:00:16;16.20;99.90
7648;DHT22;3866;48.020;11.720;2023-09-30T04:02:45;16.10;99.90
7648;DHT22;3866;48.020;11.720;2023-09-30T04:05:16;16.20;99.90
7648;DHT22;3866;48.020;11.720;2023-09-30T04:07:46;16.10;99.90
7648;DHT22;3866;48.020;11.720;2023-09-30T04:10:13;16.10;99.90
7648;DHT22;3866;48.020;11.720;2023-09-30T04:12:42;16.10;99.90
7648;DHT22;3866;48.020;11.720;2023-09-30T04:15:09;16.20;99.90
7648;DHT22;3866;48.020;11.720;2023-09-30T04:17:38;16.10;99.90
7648;DHT22;3866;48.020;11.720;2023-09-30T04:20:07;16.20;99.90
7648;DHT22;3866;48.020;11.720;2023-09-30T04:22:37;16.20;99.90
7648;DHT22;3866;48.020;11.720;2023-09-30T04:25:08;16.20;99.90
7648;DHT22;3866;48.020;11.720;2023-09-30T04:27:37;16.20;99.90
7648;DHT22;3866;48.020;11.720;2023-09-30T04:30:06;16.10;99.90
7648;DHT22;3866;48.020;11.720;2023-09-30T04:32:34;16.10;99.90
7648;DHT22;3866;48.020;11.720;2023-09-30T04:35:03;16.10;99.90
7648;DHT22;3866;48.020;11.720;2023-09-30T04:37:31;16.00;99.90
7648;DHT22;3866;48.020;11.720;2023-09-30T04:39:59;16.10;99.90
7648;DHT22;3866;48.020;11.720;2023-09-30T04:42:29;16.00;99.90
7648;DHT22;3866;48.020;11.720;2023-09-30T04:44:57;16.00;99.90
7648;DHT22;3866;48.020;11.720;2023-09-30T04:47:26;16.00;99.90
7648;DHT22;3866;48.020;11.720;2023-09-30T04:49:55;16.00;99.90
7648;DHT22;3866;48.020;11.720;2023-09-30T04:52:24;16.00;99.90
7648;DHT22;3866;48.020;11.720;2023-09-30T04:54:54;16.00;99.90
7648;DHT22;3866;48.020;11.720;2023-09-30T04:57:22;15.80;99.90
7648;DHT22;3866;48.020;11.720;2023-09-30T04:59:51;15.80;99.90
7648;DHT22;3866;48.020;11.720;2023-09-30T05:02:19;15.80;99.90
7648;DHT22;3866;48.020;11.720;2023-09-30T05:04:47;15.80;99.90
7648;DHT22;3866;48.020;11.720;2023-09-30T05:07:15;15.80;99.90
7648;DHT22;3866;48.020;11.720;2023-09-30T05:09:43;15.80;99.90
7648;DHT22;3866;48.020;11.720;2023-09-30T05:12:11;15.80;99.90
7648;DHT22;3866;48.020;11.720;2023-09-30T05:14:38;15.80;99.90
7648;DHT22;3866;48.020;11.720;2023-09-30T05:17:07;15.80;99.90
7648;DHT22;3866;48.020;11.720;2023-09-30T05:19:36;15.80;99.90
7648;DHT22;3866;48.020;11.720;2023-09-30T05:22:04;15.80;99.90
7648;DHT22;3866;48.020;11.720;2023-09-30T05:24:32;15.90;99.90
7648;DHT22;3866;48.020;11.720;2023-09-30T05:27:00;16.00;99.90
7648;DHT22;3866;48.020;11.720;2023-09-30T05:29:29;15.90;99.90
7648;DHT22;3866;48.020;11.720;2023-09-30T05:31:59;15.90;99.90
7648;DHT22;3866;48.020;11.720;2023-09-30T05:34:28;15.90;99.90
7648;DHT22;3866;48.020;11.720;2023-09-30T05:36:56;15.90;99.90
7648;DHT22;3866;48.020;11.720;2023-09-30T05:39:25;16.00;99.90
7648;DHT22;3866;48.020;11.720;2023-09-30T05:41:53;16.00;99.90
7648;DHT22;3866;48.020;11.720;2023-09-30T05:44:22;16.00;99.90
7648;DHT22;3866;48.020;11.720;2023-09-30T05:46:51;16.00;99.90
7648;DHT22;3866;48.020;11.720;2023-09-30T05:49:18;16.00;99.90
7648;DHT22;3866;48.020;11.720;2023-09-30T05:52:02;16.10;99.90
7648;DHT22;3866;48.020;11.720;2023-09-30T05:54:29;16.10;99.90
7648;DHT22;3866;48.020;11.720;2023-09-30T05:56:56;16.00;99.90
7648;DHT22;3866;48.020;11.720;2023-09-30T05:59:23;16.00;99.90
7648;DHT22;3866;48.020;11.720;2023-09-30T06:01:51;16.00;99.90
7648;DHT22;3866;48.020;11.720;2023-09-30T06:04:18;16.00;99.90
7648;DHT22;3866;48.020;11.720;2023-09-30T06:06:46;15.90;99.90
7648;DHT22;3866;48.020;11.720;2023-09-30T06:09:16;16.00;99.90
7648;DHT22;3866;48.020;11.720;2023-09-30T06:11:44;15.90;99.90
7648;DHT22;3866;48.020;11.720;2023-09-30T06:14:12;16.00;99.90
7648;DHT22;3866;48.020;11.720;2023-09-30T06:16:41;16.10;99.90
7648;DHT22;3866;48.020;11.720;2023-09-30T06:19:09;16.10;99.90
7648;DHT22;3866;48.020;11.720;2023-09-30T06:21:37;16.10;99.90
7648;DHT22;3866;48.020;11.720;2023-09-30T06:24:06;16.00;99.90
7648;DHT22;3866;48.020;11.720;2023-09-30T06:26:34;16.10;99.90
7648;DHT22;3866;48.020;11.720;2023-09-30T06:29:06;16.10;99.90
7648;DHT22;3866;48.020;11.720;2023-09-30T06:31:34;16.10;99.90
7648;DHT22;3866;48.020;11.720;2023-09-30T06:34:02;16.10;99.90
7648;DHT22;3866;48.020;11.720;2023-09-30T06:36:31;16.20;99.90
7648;DHT22;3866;48.020;11.720;2023-09-30T06:38:59;16.10;99.90
7648;DHT22;3866;48.020;11.720;2023-09-30T06:41:29;16.20;99.90
7648;DHT22;3866;48.020;11.720;2023-09-30T06:43:58;16.40;99.90
7648;DHT22;3866;48.020;11.720;2023-09-30T06:46:26;16.50;99.90
7648;DHT22;3866;48.020;11.720;2023-09-30T06:48:54;17.10;99.90
7648;DHT22;3866;48.020;11.720;2023-09-30T06:51:22;17.10;99.90
7648;DHT22;3866;48.020;11.720;2023-09-30T06:53:50;16.80;99.90
7648;DHT22;3866;48.020;11.720;2023-09-30T06:56:19;16.70;99.90
7648;DHT22;3866;48.020;11.720;2023-09-30T06:58:46;16.40;99.90
7648;DHT22;3866;48.020;11.720;2023-09-30T07:01:16;16.40;99.90
7648;DHT22;3866;48.020;11.720;2023-09-30T07:03:44;16.50;99.90
7648;DHT22;3866;48.020;11.720;2023-09-30T07:06:11;16.20;99.90
7648;DHT22;3866;48.020;11.720;2023-09-30T07:08:37;16.20;99.90
7648;DHT22;3866;48.020;11.720;2023-09-30T07:11:04;16.00;99.90
7648;DHT22;3866;48.020;11.720;2023-09-30T07:13:33;16.00;99.90
7648;DHT22;3866;48.020;11.720;2023-09-30T07:16:01;16.20;99.90
7648;DHT22;3866;48.020;11.720;2023-09-30T07:18:29;16.00;99.90
7648;DHT22;3866;48.020;11.720;2023-09-30T07:20:56;16.10;99.90
7648;DHT22;3866;48.020;11.720;2023-09-30T07:23:23;16.00;99.90
7648;DHT22;3866;48.020;11.720;2023-09-30T07:25:49;16.10;99.90
7648;DHT22;3866;48.020;11.720;2023-09-30T07:28:16;16.00;99.90
7648;DHT22;3866;48.020;11.720;2023-09-30T07:30:44;16.10;99.90
7648;DHT22;3866;48.020;11.720;2023-09-30T07:33:10;16.50;99.90
7648;DHT22;3866;48.020;11.720;2023-09-30T07:35:39;16.70;99.90
7648;DHT22;3866;48.020;11.720;2023-09-30T07:38:06;16.80;99.90
7648;DHT22;3866;48.020;11.720;2023-09-30T07:40:32;16.80;99.90
7648;DHT22;3866;48.020;11.720;2023-09-30T07:42:59;16.40;99.90
7648;DHT22;3866;48.020;11.720;2023-09-30T07:45:26;16.50;99.90
7648;DHT22;3866;48.020;11.720;2023-09-30T07:47:53;16.50;99.90
7648;DHT22;3866;48.020;11.720;2023-09-30T07:50:20;16.60;99.90
7648;DHT22;3866;48.020;11.720;2023-09-30T07:52:48;16.50;99.90
7648;DHT22;3866;48.020;11.720;2023-09-30T07:55:15;16.60;99.90
7648;DHT22;3866;48.020;11.720;2023-09-30T07:57:43;16.30;99.90
7648;DHT22;3866;48.020;11.720;2023-09-30T08:00:12;16.20;99.90
7648;DHT22;3866;48.020;11.720;2023-09-30T08:02:41;16.10;99.90
7648;DHT22;3866;48.020;11.720;2023-09-30T08:05:09;16.10;99.90
7648;DHT22;3866;48.020;11.720;2023-09-30T08:07:36;16.30;99.90
7648;DHT22;3866;48.020;11.720;2023-09-30T08:10:06;16.40;99.90
7648;DHT22;3866;48.020;11.720;2023-09-30T08:12:37;16.60;99.90
7648;DHT22;3866;48.020;11.720;2023-09-30T08:15:06;16.50;99.90
7648;DHT22;3866;48.020;11.720;2023-09-30T08:17:33;16.20;99.90
7648;DHT22;3866;48.020;11.720;2023-09-30T08:20:00;16.20;99.90
7648;DHT22;3866;48.020;11.720;2023-09-30T08:22:27;16.20;99.90
7648;DHT22;3866;48.020;11.720;2023-09-30T08:24:54;16.30;99.90
7648;DHT22;3866;48.020;11.720;2023-09-30T08:27:22;16.50;99.90
7648;DHT22;3866;48.020;11.720;2023-09-30T08:29:53;16.50;99.90
7648;DHT22;3866;48.020;11.720;2023-09-30T08:32:20;16.60;99.90
7648;DHT22;3866;48.020;11.720;2023-09-30T08:34:49;16.90;99.90
7648;DHT22;3866;48.020;11.720;2023-09-30T08:37:17;16.90;99.90
7648;DHT22;3866;48.020;11.720;2023-09-30T08:39:45;17.00;99.90
7648;DHT22;3866;48.020;11.720;2023-09-30T08:42:12;17.10;99.90
7648;DHT22;3866;48.020;11.720;2023-09-30T08:44:41;16.90;99.90
7648;DHT22;3866;48.020;11.720;2023-09-30T08:47:12;17.00;99.90
7648;DHT22;3866;48.020;11.720;2023-09-30T08:49:45;17.10;99.90
7648;DHT22;3866;48.020;11.720;2023-09-30T08:52:15;17.30;99.90
7648;DHT22;3866;48.020;11.720;2023-09-30T08:54:43;17.30;99.90
7648;DHT22;3866;48.020;11.720;2023-09-30T08:57:13;17.50;99.90
7648;DHT22;3866;48.020;11.720;2023-09-30T08:59:47;17.70;99.90
7648;DHT22;3866;48.020;11.720;2023-09-30T09:02:15;18.10;99.90
7648;DHT22;3866;48.020;11.720;2023-09-30T09:04:46;18.10;99.90
7648;DHT22;3866;48.020;11.720;2023-09-30T09:07:14;18.40;99.90
7648;DHT22;3866;48.020;11.720;2023-09-30T09:09:43;18.30;99.90
7648;DHT22;3866;48.020;11.720;2023-09-30T09:12:29;17.90;99.90
7648;DHT22;3866;48.020;11.720;2023-09-30T09:14:57;17.80;99.90
7648;DHT22;3866;48.020;11.720;2023-09-30T09:17:40;17.90;99.90
7648;DHT22;3866;48.020;11.720;2023-09-30T09:20:09;17.90;99.90
7648;DHT22;3866;48.020;11.720;2023-09-30T09:22:41;18.10;99.90
7648;DHT22;3866;48.020;11.720;2023-09-30T09:25:10;18.50;99.90
7648;DHT22;3866;48.020;11.720;2023-09-30T09:27:39;18.60;99.90
7648;DHT22;3866;48.020;11.720;2023-09-30T09:30:18;18.50;99.90
7648;DHT22;3866;48.020;11.720;2023-09-30T09:33:00;18.50;99.90
7648;DHT22;3866;48.020;11.720;2023-09-30T09:35:29;18.40;99.90
7648;DHT22;3866;48.020;11.720;2023-09-30T09:38:04;18.60;99.90
7648;DHT22;3866;48.020;11.720;2023-09-30T09:40:34;18.30;99.90
7648;DHT22;3866;48.020;11.720;2023-09-30T09:43:03;18.30;99.90
7648;DHT22;3866;48.020;11.720;2023-09-30T09:45:37;18.50;99.90
7648;DHT22;3866;48.020;11.720;2023-09-30T09:48:09;17.90;99.90
7648;DHT22;3866;48.020;11.720;2023-09-30T09:50:41;17.90;99.90
7648;DHT22;3866;48.020;11.720;2023-09-30T09:53:12;18.30;99.90
7648;DHT22;3866;48.020;11.720;2023-09-30T09:55:42;18.50;99.90
7648;DHT22;3866;48.020;11.720;2023-09-30T09:58:11;18.40;99.90
7648;DHT22;3866;48.020;11.720;2023-09-30T10:00:42;18.20;99.90
7648;DHT22;3866;48.020;11.720;2023-09-30T10:03:13;18.60;99.90
7648;DHT22;3866;48.020;11.720;2023-09-30T10:05:41;18.60;99.90
7648;DHT22;3866;48.020;11.720;2023-09-30T10:08:15;18.60;99.90
7648;DHT22;3866;48.020;11.720;2023-09-30T10:10:45;18.70;99.90
7648;DHT22;3866;48.020;11.720;2023-09-30T10:16:49;18.70;99.90
7648;DHT22;3866;48.020;11.720;2023-09-30T10:19:21;18.70;99.90
7648;DHT22;3866;48.020;11.720;2023-09-30T10:22:21;18.80;99.90
7648;DHT22;3866;48.020;11.720;2023-09-30T10:24:48;18.50;99.90
7648;DHT22;3866;48.020;11.720;2023-09-30T10:27:30;18.30;99.90
7648;DHT22;3866;48.020;11.720;2023-09-30T10:30:07;18.80;99.90
7648;DHT22;3866;48.020;11.720;2023-09-30T10:33:08;19.10;99.90
7648;DHT22;3866;48.020;11.720;2023-09-30T10:35:50;19.40;99.90
7648;DHT22;3866;48.020;11.720;2023-09-30T10:38:39;19.40;99.90
7648;DHT22;3866;48.020;11.720;2023-09-30T10:41:09;19.10;99.90
7648;DHT22;3866;48.020;11.720;2023-09-30T10:43:39;19.20;99.90
7648;DHT22;3866;48.020;11.720;2023-09-30T10:46:30;19.30;99.90
7648;DHT22;3866;48.020;11.720;2023-09-30T10:49:15;19.50;99.90
7648;DHT22;3866;48.020;11.720;2023-09-30T10:51:43;19.30;99.90
7648;DHT22;3866;48.020;11.720;2023-09-30T10:54:12;19.20;99.90
7648;DHT22;3866;48.020;11.720;2023-09-30T10:56:39;19.50;99.90
7648;DHT22;3866;48.020;11.720;2023-09-30T10:59:06;19.70;99.90
7648;DHT22;3866;48.020;11.720;2023-09-30T11:01:35;19.60;99.90
7648;DHT22;3866;48.020;11.720;2023-09-30T11:04:04;19.40;99.90
7648;DHT22;3866;48.020;11.720;2023-09-30T11:06:32;19.30;99.90
7648;DHT22;3866;48.020;11.720;2023-09-30T11:09:00;19.10;99.90
7648;DHT22;3866;48.020;11.720;2023-09-30T11:11:36;19.20;99.90
7648;DHT22;3866;48.020;11.720;2023-09-30T11:14:17;19.50;99.90
7648;DHT22;3866;48.020;11.720;2023-09-30T11:16:44;19.70;99.90
7648;DHT22;3866;48.020;11.720;2023-09-30T11:19:14;19.90;99.90
7648;DHT22;3866;48.020;11.720;2023-09-30T11:21:43;20.00;99.90
7648;DHT22;3866;48.020;11.720;2023-09-30T11:24:13;19.90;99.90
7648;DHT22;3866;48.020;11.720;2023-09-30T11:26:42;20.10;99.90
7648;DHT22;3866;48.020;11.720;2023-09-30T11:29:12;20.10;99.90
7648;DHT22;3866;48.020;11.720;2023-09-30T11:31:42;20.10;99.90
7648;DHT22;3866;48.020;11.720;2023-09-30T11:34:11;20.20;99.90
7648;DHT22;3866;48.020;11.720;2023-09-30T11:36:46;20.30;99.90
7648;DHT22;3866;48.020;11.720;2023-09-30T11:39:21;20.30;99.90
7648;DHT22;3866;48.020;11.720;2023-09-30T11:41:49;20.10;99.90
7648;DHT22;3866;48.020;11.720;2023-09-30T11:44:19;20.10;99.90
7648;DHT22;3866;48.020;11.720;2023-09-30T11:46:50;20.00;99.90
7648;DHT22;3866;48.020;11.720;2023-09-30T11:49:29;19.80;99.90
7648;DHT22;3866;48.020;11.720;2023-09-30T11:52:00;19.90;99.90
7648;DHT22;3866;48.020;11.720;2023-09-30T11:54:31;19.70;99.90
7648;DHT22;3866;48.020;11.720;2023-09-30T11:57:07;19.80;99.90
7648;DHT22;3866;48.020;11.720;2023-09-30T11:59:37;19.70;99.90
7648;DHT22;3866;48.020;11.720;2023-09-30T12:02:06;19.70;99.90
7648;DHT22;3866;48.020;11.720;2023-09-30T12:04:34;19.40;99.90
7648;DHT22;3866;48.020;11.720;2023-09-30T12:07:03;19.20;99.90
7648;DHT22;3866;48.020;11.720;2023-09-30T12:09:31;19.30;99.90
7648;DHT22;3866;48.020;11.720;2023-09-30T12:11:59;19.20;99.90
7648;DHT22;3866;48.020;11.720;2023-09-30T12:14:27;19.40;99.90
7648;DHT22;3866;48.020;11.720;2023-09-30T12:16:57;19.60;99.90
7648;DHT22;3866;48.020;11.720;2023-09-30T12:19:25;20.00;99.90
7648;DHT22;3866;48.020;11.720;2023-09-30T12:21:52;20.20;99.90
7648;DHT22;3866;48.020;11.720;2023-09-30T12:24:22;19.90;99.90
7648;DHT22;3866;48.020;11.720;2023-09-30T12:26:50;20.00;99.90
7648;DHT22;3866;48.020;11.720;2023-09-30T12:29:21;19.70;99.90
7648;DHT22;3866;48.020;11.720;2023-09-30T12:31:50;19.80;99.90
7648;DHT22;3866;48.020;11.720;2023-09-30T12:34:18;20.00;99.90
7648;DHT22;3866;48.020;11.720;2023-09-30T12:36:49;20.30;99.90
7648;DHT22;3866;48.020;11.720;2023-09-30T12:39:16;20.20;99.90
7648;DHT22;3866;48.020;11.720;2023-09-30T12:41:52;20.10;99.90
7648;DHT22;3866;48.020;11.720;2023-09-30T12:44:23;19.90;99.90
7648;DHT22;3866;48.020;11.720;2023-09-30T12:46:50;19.90;99.90
7648;DHT22;3866;48.020;11.720;2023-09-30T12:49:18;19.70;99.90
7648;DHT22;3866;48.020;11.720;2023-09-30T12:51:45;19.70;99.90
7648;DHT22;3866;48.020;11.720;2023-09-30T12:54:13;20.00;99.90
7648;DHT22;3866;48.020;11.720;2023-09-30T12:56:44;20.10;99.90
7648;DHT22;3866;48.020;11.720;2023-09-30T12:59:15;19.80;99.90
7648;DHT22;3866;48.020;11.720;2023-09-30T13:01:57;20.20;99.90
7648;DHT22;3866;48.020;11.720;2023-09-30T13:04:24;20.20;99.90
7648;DHT22;3866;48.020;11.720;2023-09-30T13:06:54;20.50;99.90
7648;DHT22;3866;48.020;11.720;2023-09-30T13:09:21;20.40;99.90
7648;DHT22;3866;48.020;11.720;2023-09-30T13:11:54;20.40;99.90
7648;DHT22;3866;48.020;11.720;2023-09-30T13:14:27;20.40;99.90
7648;DHT22;3866;48.020;11.720;2023-09-30T13:16:55;20.40;99.90
7648;DHT22;3866;48.020;11.720;2023-09-30T13:19:22;20.40;99.90
7648;DHT22;3866;48.020;11.720;2023-09-30T13:21:50;20.30;99.90
7648;DHT22;3866;48.020;11.720;2023-09-30T13:24:21;20.50;99.90
7648;DHT22;3866;48.020;11.720;2023-09-30T13:26:49;20.70;99.90
7648;DHT22;3866;48.020;11.720;2023-09-30T13:29:22;21.30;99.90
7648;DHT22;3866;48.020;11.720;2023-09-30T13:31:53;21.70;99.90
7648;DHT22;3866;48.020;11.720;2023-09-30T13:34:21;21.40;99.90
7648;DHT22;3866;48.020;11.720;2023-09-30T13:36:50;21.20;99.90
7648;DHT22;3866;48.020;11.720;2023-09-30T13:39:19;21.40;99.90
7648;DHT22;3866;48.020;11.720;2023-09-30T13:41:48;21.20;99.90
7648;DHT22;3866;48.020;11.720;2023-09-30T13:44:16;20.90;99.90
7648;DHT22;3866;48.020;11.720;2023-09-30T13:47:01;20.50;99.90
7648;DHT22;3866;48.020;11.720;2023-09-30T13:49:29;20.40;99.90
7648;DHT22;3866;48.020;11.720;2023-09-30T13:51:58;20.80;99.90
7648;DHT22;3866;48.020;11.720;2023-09-30T13:54:31;21.10;99.90
7648;DHT22;3866;48.020;11.720;2023-09-30T13:57:00;21.40;99.90
7648;DHT22;3866;48.020;11.720;2023-09-30T13:59:33;21.80;99.90
7648;DHT22;3866;48.020;11.720;2023-09-30T14:02:07;21.60;99.90
7648;DHT22;3866;48.020;11.720;2023-09-30T14:04:35;21.30;99.90
7648;DHT22;3866;48.020;11.720;2023-09-30T14:07:06;21.30;99.90
7648;DHT22;3866;48.020;11.720;2023-09-30T14:09:35;21.40;99.90
7648;DHT22;3866;48.020;11.720;2023-09-30T14:12:04;21.50;99.90
7648;DHT22;3866;48.020;11.720;2023-09-30T14:14:37;21.60;99.90
7648;DHT22;3866;48.020;11.720;2023-09-30T14:17:09;21.80;99.90
7648;DHT22;3866;48.020;11.720;2023-09-30T14:19:38;21.80;99.90
7648;DHT22;3866;48.020;11.720;2023-09-30T14:22:07;21.80;99.90
7648;DHT22;3866;48.020;11.720;2023-09-30T14:24:35;22.00;99.90
7648;DHT22;3866;48.020;11.720;2023-09-30T14:27:05;21.50;99.90
7648;DHT22;3866;48.020;11.720;2023-09-30T14:29:34;21.50;99.90
7648;DHT22;3866;48.020;11.720;2023-09-30T14:32:04;21.60;99.90
7648;DHT22;3866;48.020;11.720;2023-09-30T14:34:34;21.20;99.90
7648;DHT22;3866;48.020;11.720;2023-09-30T14:37:01;20.60;99.90
7648;DHT22;3866;48.020;11.720;2023-09-30T14:39:28;20.40;99.90
7648;DHT22;3866;48.020;11.720;2023-09-30T14:41:56;20.10;99.90
7648;DHT22;3866;48.020;11.720;2023-09-30T14:44:24;19.80;99.90
7648;DHT22;3866;48.020;11.720;2023-09-30T14:46:52;19.60;99.90
7648;DHT22;3866;48.020;11.720;2023-09-30T14:49:22;19.40;99.90
7648;DHT22;3866;48.020;11.720;2023-09-30T14:51:52;19.50;99.90
7648;DHT22;3866;48.020;11.720;2023-09-30T14:54:20;19.30;99.90
7648;DHT22;3866;48.020;11.720;2023-09-30T14:56:49;19.20;99.90
7648;DHT22;3866;48.020;11.720;2023-09-30T14:59:17;19.20;99.90
7648;DHT22;3866;48.020;11.720;2023-09-30T15:01:45;19.30;99.90
7648;DHT22;3866;48.020;11.720;2023-09-30T15:04:12;19.20;99.90
7648;DHT22;3866;48.020;11.720;2023-09-30T15:06:40;19.20;99.90
7648;DHT22;3866;48.020;11.720;2023-09-30T15:09:09;19.30;99.90
7648;DHT22;3866;48.020;11.720;2023-09-30T15:11:38;19.30;99.90
7648;DHT22;3866;48.020;11.720;2023-09-30T15:14:07;19.30;99.90
7648;DHT22;3866;48.020;11.720;2023-09-30T15:16:35;19.40;99.90
7648;DHT22;3866;48.020;11.720;2023-09-30T15:19:04;19.50;99.90
7648;DHT22;3866;48.020;11.720;2023-09-30T15:21:31;19.30;99.90
7648;DHT22;3866;48.020;11.720;2023-09-30T15:23:59;19.10;99.90
7648;DHT22;3866;48.020;11.720;2023-09-30T15:26:30;19.00;99.90
7648;DHT22;3866;48.020;11.720;2023-09-30T15:28:57;19.10;99.90
7648;DHT22;3866;48.020;11.720;2023-09-30T15:31:27;19.10;99.90
7648;DHT22;3866;48.020;11.720;2023-09-30T15:33:55;19.10;99.90
7648;DHT22;3866;48.020;11.720;2023-09-30T15:36:23;18.90;99.90
7648;DHT22;3866;48.020;11.720;2023-09-30T15:38:51;19.00;99.90
7648;DHT22;3866;48.020;11.720;2023-09-30T15:41:23;19.00;99.90
7648;DHT22;3866;48.020;11.720;2023-09-30T15:43:52;18.90;99.90
7648;DHT22;3866;48.020;11.720;2023-09-30T15:46:19;18.80;99.90
7648;DHT22;3866;48.020;11.720;2023-09-30T15:48:45;18.80;99.90
7648;DHT22;3866;48.020;11.720;2023-09-30T15:51:12;18.80;99.90
7648;DHT22;3866;48.020;11.720;2023-09-30T15:53:39;18.80;99.90
7648;DHT22;3866;48.020;11.720;2023-09-30T15:56:06;18.70;99.90
7648;DHT22;3866;48.020;11.720;2023-09-30T15:58:33;18.60;99.90
7648;DHT22;3866;48.020;11.720;2023-09-30T16:01:01;18.50;99.90
7648;DHT22;3866;48.020;11.720;2023-09-30T16:03:28;18.60;99.90